sensor_id;sensor_type;location;lat;lon;timestamp;pressure;altitude;pressure_sealevel;temperature;humidity
13312;BME280;34033;48.672;9.376;2023-01-29T00:02:21;99636.38;;;3.28;69.77
13312;BME280;34033;48.672;9.376;2023-01-29T00:04:46;99643.13;;;3.36;69.40
13312;BME280;34033;48.672;9.376;2023-01-29T00:07:11;99642.31;;;3.35;69.04
13312;BME280;34033;48.672;9.376;2023-01-29T00:09:37;99636.97;;;3.39;69.18
13312;BME280;34033;48.672;9.376;2023-01-29T00:12:02;99626.53;;;3.36;69.08
13312;BME280;34033;48.672;9.376;2023-01-29T00:14:28;99624.78;;;3.40;68.64
13312;BME280;34033;48.672;9.376;2023-01-29T00:16:53;99622.84;;;3.41;68.62
13312;BME280;34033;48.672;9.376;2023-01-29T00:19:19;99619.94;;;3.46;68.47
13312;BME280;34033;48.672;9.376;2023-01-29T00:21:44;99636.66;;;3.41;68.22
13312;BME280;34033;48.672;9.376;2023-01-29T00:24:10;99633.69;;;3.37;68.65
13312;BME280;34033;48.672;9.376;2023-01-29T00:26:36;99645.81;;;3.27;68.68
13312;BME280;34033;48.672;9.376;2023-01-29T00:29:04;99639.28;;;3.23;68.41
13312;BME280;34033;48.672;9.376;2023-01-29T00:31:29;99638.84;;;3.30;68.63
13312;BME280;34033;48.672;9.376;2023-01-29T00:33:55;99628.63;;;3.30;68.49
13312;BME280;34033;48.672;9.376;2023-01-29T00:36:21;99629.63;;;3.34;68.65
13312;BME280;34033;48.672;9.376;2023-01-29T00:38:52;99628.97;;;3.38;68.40
13312;BME280;34033;48.672;9.376;2023-01-29T00:41:25;99631.84;;;3.32;68.37
13312;BME280;34033;48.672;9.376;2023-01-29T00:44:09;99632.84;;;3.36;67.87
13312;BME280;34033;48.672;9.376;2023-01-29T00:46:53;99625.72;;;3.35;67.72
13312;BME280;34033;48.672;9.376;2023-01-29T00:49:18;99631.72;;;3.38;67.69
13312;BME280;34033;48.672;9.376;2023-01-29T00:51:44;99621.69;;;3.42;67.80
13312;BME280;34033;48.672;9.376;2023-01-29T00:54:29;99635.19;;;3.43;68.16
13312;BME280;34033;48.672;9.376;2023-01-29T00:56:54;99637.78;;;3.40;68.71
13312;BME280;34033;48.672;9.376;2023-01-29T00:59:20;99627.72;;;3.44;68.30
13312;BME280;34033;48.672;9.376;2023-01-29T01:01:45;99637.13;;;3.43;68.40
13312;BME280;34033;48.672;9.376;2023-01-29T01:04:29;99634.88;;;3.45;68.29
13312;BME280;34033;48.672;9.376;2023-01-29T01:06:54;99626.28;;;3.46;68.40
13312;BME280;34033;48.672;9.376;2023-01-29T01:09:19;99627.91;;;3.47;68.09
13312;BME280;34033;48.672;9.376;2023-01-29T01:12:04;99629.53;;;3.48;68.29
13312;BME280;34033;48.672;9.376;2023-01-29T01:14:29;99617.56;;;3.53;67.72
13312;BME280;34033;48.672;9.376;2023-01-29T01:16:54;99621.91;;;3.54;67.56
13312;BME280;34033;48.672;9.376;2023-01-29T01:19:20;99623.56;;;3.55;67.44
13312;BME280;34033;48.672;9.376;2023-01-29T01:21:45;99625.38;;;3.59;67.18
13312;BME280;34033;48.672;9.376;2023-01-29T01:24:12;99620.53;;;3.65;67.65
13312;BME280;34033;48.672;9.376;2023-01-29T01:26:38;99611.75;;;3.63;67.85
13312;BME280;34033;48.672;9.376;2023-01-29T01:29:04;99616.59;;;3.57;67.03
13312;BME280;34033;48.672;9.376;2023-01-29T01:31:29;99627.44;;;3.54;67.04
13312;BME280;34033;48.672;9.376;2023-01-29T01:33:54;99616.91;;;3.56;66.97
13312;BME280;34033;48.672;9.376;2023-01-29T01:36:20;99615.41;;;3.50;66.71
13312;BME280;34033;48.672;9.376;2023-01-29T01:38:45;99612.94;;;3.48;66.92
13312;BME280;34033;48.672;9.376;2023-01-29T01:41:13;99616.66;;;3.44;66.85
13312;BME280;34033;48.672;9.376;2023-01-29T01:43:58;99612.38;;;3.38;66.82
13312;BME280;34033;48.672;9.376;2023-01-29T01:46:28;99615.28;;;3.32;66.80
13312;BME280;34033;48.672;9.376;2023-01-29T01:49:04;99614.28;;;3.28;67.47
13312;BME280;34033;48.672;9.376;2023-01-29T01:51:35;99610.53;;;3.24;67.49
13312;BME280;34033;48.672;9.376;2023-01-29T01:54:08;99605.13;;;3.19;67.47
13312;BME280;34033;48.672;9.376;2023-01-29T01:56:39;99613.91;;;3.21;67.70
13312;BME280;34033;48.672;9.376;2023-01-29T01:59:09;99615.53;;;3.22;67.97
13312;BME280;34033;48.672;9.376;2023-01-29T02:01:36;99610.13;;;3.17;67.92
13312;BME280;34033;48.672;9.376;2023-01-29T02:04:10;99611.91;;;3.13;67.67
13312;BME280;34033;48.672;9.376;2023-01-29T02:06:57;99615.59;;;3.09;68.27
13312;BME280;34033;48.672;9.376;2023-01-29T02:09:50;99619.16;;;3.09;67.44
13312;BME280;34033;48.672;9.376;2023-01-29T02:12:18;99612.19;;;3.12;67.88
13312;BME280;34033;48.672;9.376;2023-01-29T02:14:45;99612.38;;;3.15;67.62
13312;BME280;34033;48.672;9.376;2023-01-29T02:17:15;99608.88;;;3.23;67.96
13312;BME280;34033;48.672;9.376;2023-01-29T02:31:13;99619.84;;;3.15;67.57
13312;BME280;34033;48.672;9.376;2023-01-29T02:36:46;99625.56;;;2.96;67.62
13312;BME280;34033;48.672;9.376;2023-01-29T02:44:39;99628.31;;;2.96;68.09
13312;BME280;34033;48.672;9.376;2023-01-29T02:47:16;99627.44;;;3.09;67.42
13312;BME280;34033;48.672;9.376;2023-01-29T02:49:47;99632.06;;;3.14;67.52
13312;BME280;34033;48.672;9.376;2023-01-29T02:52:22;99623.31;;;3.20;67.70
13312;BME280;34033;48.672;9.376;2023-01-29T02:54:55;99628.47;;;3.13;67.46
13312;BME280;34033;48.672;9.376;2023-01-29T02:57:29;99631.03;;;3.10;67.35
13312;BME280;34033;48.672;9.376;2023-01-29T02:59:59;99633.59;;;3.06;66.91
13312;BME280;34033;48.672;9.376;2023-01-29T03:02:36;99624.81;;;3.04;66.60
13312;BME280;34033;48.672;9.376;2023-01-29T03:05:08;99626.69;;;2.95;66.97
13312;BME280;34033;48.672;9.376;2023-01-29T03:07:40;99624.22;;;2.93;66.65
13312;BME280;34033;48.672;9.376;2023-01-29T03:10:27;99625.34;;;2.92;66.76
13312;BME280;34033;48.672;9.376;2023-01-29T03:16:24;99623.84;;;2.86;67.35
13312;BME280;34033;48.672;9.376;2023-01-29T03:19:02;99616.69;;;2.85;67.28
13312;BME280;34033;48.672;9.376;2023-01-29T03:21:33;99612.19;;;2.89;66.80
13312;BME280;34033;48.672;9.376;2023-01-29T03:24:40;99612.75;;;3.00;66.63
13312;BME280;34033;48.672;9.376;2023-01-29T03:27:34;99615.09;;;3.07;66.42
13312;BME280;34033;48.672;9.376;2023-01-29T03:30:20;99617.66;;;3.03;66.22
13312;BME280;34033;48.672;9.376;2023-01-29T03:33:07;99618.66;;;3.07;66.65
13312;BME280;34033;48.672;9.376;2023-01-29T03:35:37;99613.16;;;3.07;66.34
13312;BME280;34033;48.672;9.376;2023-01-29T03:38:07;99620.72;;;3.02;66.26
13312;BME280;34033;48.672;9.376;2023-01-29T03:40:41;99627.19;;;2.97;65.88
13312;BME280;34033;48.672;9.376;2023-01-29T03:43:22;99625.75;;;3.00;66.49
13312;BME280;34033;48.672;9.376;2023-01-29T03:46:03;99621.56;;;3.02;66.25
13312;BME280;34033;48.672;9.376;2023-01-29T03:48:34;99621.13;;;3.09;65.85
13312;BME280;34033;48.672;9.376;2023-01-29T03:53:54;99616.47;;;3.18;65.49
13312;BME280;34033;48.672;9.376;2023-01-29T04:01:44;99628.00;;;3.20;65.01
13312;BME280;34033;48.672;9.376;2023-01-29T04:06:43;99624.94;;;3.21;64.89
13312;BME280;34033;48.672;9.376;2023-01-29T04:09:17;99629.66;;;3.21;64.75
13312;BME280;34033;48.672;9.376;2023-01-29T04:11:54;99632.34;;;3.12;64.13
13312;BME280;34033;48.672;9.376;2023-01-29T04:14:22;99631.84;;;3.10;64.48
13312;BME280;34033;48.672;9.376;2023-01-29T04:16:51;99627.84;;;3.16;64.82
13312;BME280;34033;48.672;9.376;2023-01-29T04:19:18;99633.34;;;3.16;64.29
13312;BME280;34033;48.672;9.376;2023-01-29T04:21:44;99631.13;;;3.18;64.46
13312;BME280;34033;48.672;9.376;2023-01-29T04:24:11;99629.09;;;3.10;63.79
13312;BME280;34033;48.672;9.376;2023-01-29T04:32:20;99627.09;;;2.88;64.04
13312;BME280;34033;48.672;9.376;2023-01-29T04:34:59;99629.59;;;2.76;64.67
13312;BME280;34033;48.672;9.376;2023-01-29T04:37:35;99632.78;;;2.70;65.01
13312;BME280;34033;48.672;9.376;2023-01-29T04:42:48;99634.91;;;2.73;65.44
13312;BME280;34033;48.672;9.376;2023-01-29T04:51:24;99631.44;;;2.81;65.02
13312;BME280;34033;48.672;9.376;2023-01-29T04:56:42;99626.34;;;2.74;65.02
13312;BME280;34033;48.672;9.376;2023-01-29T04:59:16;99621.84;;;2.65;65.28
13312;BME280;34033;48.672;9.376;2023-01-29T05:01:42;99622.06;;;2.68;65.51
13312;BME280;34033;48.672;9.376;2023-01-29T05:04:11;99614.47;;;2.74;65.21
13312;BME280;34033;48.672;9.376;2023-01-29T05:06:38;99623.16;;;2.81;64.73
13312;BME280;34033;48.672;9.376;2023-01-29T05:09:04;99631.97;;;2.69;64.43
13312;BME280;34033;48.672;9.376;2023-01-29T05:11:31;99627.75;;;2.72;64.58
13312;BME280;34033;48.672;9.376;2023-01-29T05:13:58;99629.09;;;2.74;65.16
13312;BME280;34033;48.672;9.376;2023-01-29T05:16:33;99628.16;;;2.79;65.26
13312;BME280;34033;48.672;9.376;2023-01-29T05:19:10;99633.28;;;2.85;65.41
13312;BME280;34033;48.672;9.376;2023-01-29T05:21:37;99626.50;;;2.91;65.66
13312;BME280;34033;48.672;9.376;2023-01-29T05:24:19;99625.03;;;2.94;65.12
13312;BME280;34033;48.672;9.376;2023-01-29T05:26:46;99629.31;;;3.00;65.24
13312;BME280;34033;48.672;9.376;2023-01-29T05:29:30;99627.06;;;3.02;64.88
13312;BME280;34033;48.672;9.376;2023-01-29T05:31:55;99625.69;;;2.91;64.53
13312;BME280;34033;48.672;9.376;2023-01-29T05:34:21;99614.75;;;2.86;64.95
13312;BME280;34033;48.672;9.376;2023-01-29T05:36:46;99628.34;;;2.82;65.04
13312;BME280;34033;48.672;9.376;2023-01-29T05:39:12;99632.44;;;2.85;65.26
13312;BME280;34033;48.672;9.376;2023-01-29T05:41:37;99629.06;;;2.88;65.43
13312;BME280;34033;48.672;9.376;2023-01-29T05:44:02;99636.03;;;2.85;65.25
13312;BME280;34033;48.672;9.376;2023-01-29T05:46:28;99626.91;;;2.85;65.48
13312;BME280;34033;48.672;9.376;2023-01-29T05:48:53;99623.53;;;2.88;65.28
13312;BME280;34033;48.672;9.376;2023-01-29T05:51:19;99623.75;;;2.91;65.77
13312;BME280;34033;48.672;9.376;2023-01-29T05:53:44;99625.69;;;2.91;65.40
13312;BME280;34033;48.672;9.376;2023-01-29T05:56:09;99624.22;;;2.93;65.50
13312;BME280;34033;48.672;9.376;2023-01-29T05:58:35;99621.16;;;2.95;65.59
13312;BME280;34033;48.672;9.376;2023-01-29T06:01:18;99617.94;;;2.79;65.35
13312;BME280;34033;48.672;9.376;2023-01-29T06:03:44;99607.19;;;2.78;65.09
13312;BME280;34033;48.672;9.376;2023-01-29T06:06:10;99596.31;;;2.81;65.58
13312;BME280;34033;48.672;9.376;2023-01-29T06:08:36;99582.72;;;2.85;65.07
13312;BME280;34033;48.672;9.376;2023-01-29T06:11:02;99583.72;;;2.89;64.39
13312;BME280;34033;48.672;9.376;2023-01-29T06:13:29;99586.38;;;2.94;64.05
13312;BME280;34033;48.672;9.376;2023-01-29T06:15:54;99592.72;;;2.94;64.18
13312;BME280;34033;48.672;9.376;2023-01-29T06:18:20;99590.50;;;2.83;64.53
13312;BME280;34033;48.672;9.376;2023-01-29T06:20:45;99591.13;;;2.80;64.90
13312;BME280;34033;48.672;9.376;2023-01-29T06:23:10;99585.84;;;2.70;64.88
13312;BME280;34033;48.672;9.376;2023-01-29T06:25:36;99589.34;;;2.62;65.43
13312;BME280;34033;48.672;9.376;2023-01-29T06:28:01;99600.78;;;2.55;65.24
13312;BME280;34033;48.672;9.376;2023-01-29T06:30:26;99597.91;;;2.60;65.60
13312;BME280;34033;48.672;9.376;2023-01-29T06:32:58;99606.00;;;2.57;65.34
13312;BME280;34033;48.672;9.376;2023-01-29T06:35:25;99607.94;;;2.70;65.60
13312;BME280;34033;48.672;9.376;2023-01-29T06:37:51;99613.56;;;2.65;65.48
13312;BME280;34033;48.672;9.376;2023-01-29T06:40:17;99610.91;;;2.60;65.65
13312;BME280;34033;48.672;9.376;2023-01-29T06:42:42;99602.03;;;2.63;65.67
13312;BME280;34033;48.672;9.376;2023-01-29T06:45:08;99616.53;;;2.55;65.83
13312;BME280;34033;48.672;9.376;2023-01-29T06:47:34;99608.47;;;2.58;65.37
13312;BME280;34033;48.672;9.376;2023-01-29T06:49:59;99605.72;;;2.58;65.12
13312;BME280;34033;48.672;9.376;2023-01-29T06:52:25;99612.97;;;2.54;65.55
13312;BME280;34033;48.672;9.376;2023-01-29T06:54:53;99628.81;;;2.48;65.77
13312;BME280;34033;48.672;9.376;2023-01-29T06:57:18;99634.56;;;2.52;65.30
13312;BME280;34033;48.672;9.376;2023-01-29T06:59:44;99632.28;;;2.54;65.95
13312;BME280;34033;48.672;9.376;2023-01-29T07:02:09;99626.44;;;2.69;66.24
13312;BME280;34033;48.672;9.376;2023-01-29T07:04:34;99618.13;;;2.83;65.39
13312;BME280;34033;48.672;9.376;2023-01-29T07:07:02;99625.03;;;2.94;65.10
13312;BME280;34033;48.672;9.376;2023-01-29T07:09:27;99625.97;;;3.03;64.72
13312;BME280;34033;48.672;9.376;2023-01-29T07:11:52;99635.44;;;3.11;64.14
13312;BME280;34033;48.672;9.376;2023-01-29T07:14:18;99638.28;;;3.19;64.38
13312;BME280;34033;48.672;9.376;2023-01-29T07:16:43;99642.34;;;3.22;63.27
13312;BME280;34033;48.672;9.376;2023-01-29T07:19:08;99636.56;;;3.10;63.87
13312;BME280;34033;48.672;9.376;2023-01-29T07:21:33;99635.59;;;3.14;63.71
13312;BME280;34033;48.672;9.376;2023-01-29T07:23:59;99636.25;;;3.11;63.36
13312;BME280;34033;48.672;9.376;2023-01-29T07:26:24;99640.38;;;3.00;63.45
13312;BME280;34033;48.672;9.376;2023-01-29T07:28:49;99641.00;;;2.97;64.09
13312;BME280;34033;48.672;9.376;2023-01-29T07:31:15;99639.25;;;3.01;63.90
13312;BME280;34033;48.672;9.376;2023-01-29T07:33:42;99646.28;;;3.07;63.44
13312;BME280;34033;48.672;9.376;2023-01-29T07:36:09;99643.78;;;2.97;62.90
13312;BME280;34033;48.672;9.376;2023-01-29T07:38:35;99634.66;;;2.97;63.21
13312;BME280;34033;48.672;9.376;2023-01-29T07:41:00;99641.06;;;3.06;63.58
13312;BME280;34033;48.672;9.376;2023-01-29T07:43:25;99654.03;;;3.19;63.15
13312;BME280;34033;48.672;9.376;2023-01-29T07:45:51;99649.69;;;3.26;62.35
13312;BME280;34033;48.672;9.376;2023-01-29T07:48:16;99655.09;;;3.31;62.60
13312;BME280;34033;48.672;9.376;2023-01-29T07:50:42;99658.38;;;3.33;62.21
13312;BME280;34033;48.672;9.376;2023-01-29T07:53:12;99661.13;;;3.33;62.39
13312;BME280;34033;48.672;9.376;2023-01-29T07:55:38;99656.13;;;3.35;61.91
13312;BME280;34033;48.672;9.376;2023-01-29T07:58:03;99655.22;;;3.26;61.49
13312;BME280;34033;48.672;9.376;2023-01-29T08:00:30;99664.34;;;3.27;61.78
13312;BME280;34033;48.672;9.376;2023-01-29T08:03:06;99664.41;;;3.35;61.21
13312;BME280;34033;48.672;9.376;2023-01-29T08:05:34;99663.16;;;3.42;61.49
13312;BME280;34033;48.672;9.376;2023-01-29T08:07:59;99671.94;;;3.44;60.99
13312;BME280;34033;48.672;9.376;2023-01-29T08:10:25;99675.47;;;3.35;60.73
13312;BME280;34033;48.672;9.376;2023-01-29T08:12:57;99672.19;;;3.33;60.92
13312;BME280;34033;48.672;9.376;2023-01-29T08:15:24;99673.13;;;3.29;61.51
13312;BME280;34033;48.672;9.376;2023-01-29T08:17:50;99669.44;;;3.33;61.55
13312;BME280;34033;48.672;9.376;2023-01-29T08:20:16;99664.41;;;3.35;61.92
13312;BME280;34033;48.672;9.376;2023-01-29T08:22:42;99654.88;;;3.42;61.04
13312;BME280;34033;48.672;9.376;2023-01-29T08:25:07;99658.88;;;3.35;61.19
13312;BME280;34033;48.672;9.376;2023-01-29T08:27:33;99661.84;;;3.61;65.01
13312;BME280;34033;48.672;9.376;2023-01-29T08:29:58;99652.44;;;3.71;60.65
13312;BME280;34033;48.672;9.376;2023-01-29T08:32:23;99657.84;;;3.76;59.86
13312;BME280;34033;48.672;9.376;2023-01-29T08:34:49;99670.81;;;3.67;59.77
13312;BME280;34033;48.672;9.376;2023-01-29T08:37:14;99672.75;;;3.44;60.24
13312;BME280;34033;48.672;9.376;2023-01-29T08:39:39;99682.13;;;3.34;60.04
13312;BME280;34033;48.672;9.376;2023-01-29T08:42:05;99686.75;;;3.25;60.85
13312;BME280;34033;48.672;9.376;2023-01-29T08:44:30;99688.81;;;3.20;60.92
13312;BME280;34033;48.672;9.376;2023-01-29T08:46:55;99686.38;;;3.18;61.67
13312;BME280;34033;48.672;9.376;2023-01-29T08:49:21;99683.41;;;3.15;61.17
13312;BME280;34033;48.672;9.376;2023-01-29T08:51:46;99685.56;;;3.18;61.12
13312;BME280;34033;48.672;9.376;2023-01-29T08:54:12;99679.41;;;3.21;61.30
13312;BME280;34033;48.672;9.376;2023-01-29T08:56:37;99685.75;;;3.21;61.49
13312;BME280;34033;48.672;9.376;2023-01-29T08:59:03;99695.72;;;3.31;61.89
13312;BME280;34033;48.672;9.376;2023-01-29T09:01:28;99694.31;;;3.33;61.75
13312;BME280;34033;48.672;9.376;2023-01-29T09:03:54;99689.31;;;3.22;61.47
13312;BME280;34033;48.672;9.376;2023-01-29T09:06:19;99709.69;;;3.26;61.36
13312;BME280;34033;48.672;9.376;2023-01-29T09:08:45;99701.13;;;3.14;61.14
13312;BME280;34033;48.672;9.376;2023-01-29T09:11:10;99704.03;;;2.95;61.43
13312;BME280;34033;48.672;9.376;2023-01-29T09:13:36;99710.50;;;2.90;61.59
13312;BME280;34033;48.672;9.376;2023-01-29T09:16:03;99714.66;;;3.02;62.03
13312;BME280;34033;48.672;9.376;2023-01-29T09:18:29;99705.59;;;5.09;100.00
13312;BME280;34033;48.672;9.376;2023-01-29T09:20:56;99705.53;;;4.74;86.87
13312;BME280;34033;48.672;9.376;2023-01-29T09:23:22;99702.38;;;6.86;90.36
13312;BME280;34033;48.672;9.376;2023-01-29T09:25:48;99697.50;;;6.83;82.43
13312;BME280;34033;48.672;9.376;2023-01-29T09:28:13;99701.00;;;6.62;76.19
13312;BME280;34033;48.672;9.376;2023-01-29T09:30:41;99700.53;;;6.14;66.53
13312;BME280;34033;48.672;9.376;2023-01-29T09:33:07;99696.19;;;5.70;62.34
13312;BME280;34033;48.672;9.376;2023-01-29T09:35:33;99688.34;;;5.46;63.20
13312;BME280;34033;48.672;9.376;2023-01-29T09:37:58;99699.28;;;5.42;63.12
13312;BME280;34033;48.672;9.376;2023-01-29T09:43:18;99711.81;;;5.06;59.34
13312;BME280;34033;48.672;9.376;2023-01-29T09:45:52;99700.53;;;6.14;85.05
13312;BME280;34033;48.672;9.376;2023-01-29T09:48:22;99706.78;;;5.94;74.17
13312;BME280;34033;48.672;9.376;2023-01-29T09:50:52;99695.34;;;5.69;64.41
13312;BME280;34033;48.672;9.376;2023-01-29T09:53:42;99702.88;;;5.95;73.97
13312;BME280;34033;48.672;9.376;2023-01-29T09:56:19;99689.81;;;6.50;74.13
13312;BME280;34033;48.672;9.376;2023-01-29T09:58:45;99690.38;;;6.26;64.17
13312;BME280;34033;48.672;9.376;2023-01-29T10:01:26;99686.03;;;6.00;60.34
13312;BME280;34033;48.672;9.376;2023-01-29T10:10:07;99687.66;;;4.97;56.01
13312;BME280;34033;48.672;9.376;2023-01-29T10:13:12;99667.34;;;4.54;56.79
13312;BME280;34033;48.672;9.376;2023-01-29T10:23:49;99636.81;;;5.11;57.77
13312;BME280;34033;48.672;9.376;2023-01-29T10:26:17;99632.25;;;5.32;56.98
13312;BME280;34033;48.672;9.376;2023-01-29T10:28:47;99623.25;;;5.52;57.41
13312;BME280;34033;48.672;9.376;2023-01-29T10:31:19;99623.41;;;5.64;56.61
13312;BME280;34033;48.672;9.376;2023-01-29T10:33:51;99618.16;;;5.89;58.20
13312;BME280;34033;48.672;9.376;2023-01-29T10:36:21;99617.94;;;5.85;55.55
13312;BME280;34033;48.672;9.376;2023-01-29T10:38:50;99626.63;;;5.83;55.11
13312;BME280;34033;48.672;9.376;2023-01-29T10:44:29;99630.22;;;5.93;55.11
13312;BME280;34033;48.672;9.376;2023-01-29T10:47:20;99639.50;;;6.43;59.33
13312;BME280;34033;48.672;9.376;2023-01-29T10:55:50;99634.25;;;6.04;54.09
13312;BME280;34033;48.672;9.376;2023-01-29T11:00:51;99627.13;;;5.68;53.06
13312;BME280;34033;48.672;9.376;2023-01-29T11:06:10;99614.38;;;5.93;55.33
13312;BME280;34033;48.672;9.376;2023-01-29T11:08:53;99616.19;;;7.81;66.04
13312;BME280;34033;48.672;9.376;2023-01-29T11:11:23;99612.38;;;7.85;56.39
13312;BME280;34033;48.672;9.376;2023-01-29T11:16:21;99619.78;;;7.48;51.50
13312;BME280;34033;48.672;9.376;2023-01-29T11:21:14;99610.81;;;7.10;51.00
13312;BME280;34033;48.672;9.376;2023-01-29T11:23:40;99613.72;;;6.93;51.43
13312;BME280;34033;48.672;9.376;2023-01-29T11:26:06;99612.75;;;6.89;51.67
13312;BME280;34033;48.672;9.376;2023-01-29T11:31:23;99604.31;;;6.56;51.54
13312;BME280;34033;48.672;9.376;2023-01-29T11:33:52;99598.16;;;6.42;51.72
13312;BME280;34033;48.672;9.376;2023-01-29T11:36:33;99601.94;;;6.37;51.87
13312;BME280;34033;48.672;9.376;2023-01-29T11:41:55;99613.34;;;6.44;53.66
13312;BME280;34033;48.672;9.376;2023-01-29T11:44:40;99616.22;;;6.56;54.43
13312;BME280;34033;48.672;9.376;2023-01-29T11:47:11;99602.59;;;6.93;67.37
13312;BME280;34033;48.672;9.376;2023-01-29T11:49:38;99594.50;;;6.79;53.97
13312;BME280;34033;48.672;9.376;2023-01-29T11:52:08;99583.25;;;6.96;54.31
13312;BME280;34033;48.672;9.376;2023-01-29T11:54:38;99581.84;;;7.11;54.20
13312;BME280;34033;48.672;9.376;2023-01-29T11:57:20;99572.31;;;7.12;52.07
13312;BME280;34033;48.672;9.376;2023-01-29T11:59:49;99573.16;;;7.12;52.03
13312;BME280;34033;48.672;9.376;2023-01-29T12:04:44;99569.34;;;7.17;51.42
13312;BME280;34033;48.672;9.376;2023-01-29T12:07:12;99579.25;;;7.06;50.68
13312;BME280;34033;48.672;9.376;2023-01-29T12:09:39;99566.44;;;6.93;49.90
13312;BME280;34033;48.672;9.376;2023-01-29T12:15:02;99560.41;;;6.91;51.80
13312;BME280;34033;48.672;9.376;2023-01-29T12:17:29;99551.44;;;7.06;52.37
13312;BME280;34033;48.672;9.376;2023-01-29T12:20:05;99549.84;;;7.05;50.86
13312;BME280;34033;48.672;9.376;2023-01-29T12:35:57;99496.69;;;6.44;50.92
13312;BME280;34033;48.672;9.376;2023-01-29T12:38:26;99486.53;;;7.35;74.28
13312;BME280;34033;48.672;9.376;2023-01-29T12:40:59;99474.97;;;7.33;54.31
13312;BME280;34033;48.672;9.376;2023-01-29T12:43:51;99468.38;;;7.37;51.81
13312;BME280;34033;48.672;9.376;2023-01-29T12:46:22;99460.25;;;7.32;49.76
13312;BME280;34033;48.672;9.376;2023-01-29T12:48:52;99454.91;;;7.27;50.40
13312;BME280;34033;48.672;9.376;2023-01-29T12:51:25;99442.69;;;7.20;49.75
13312;BME280;34033;48.672;9.376;2023-01-29T12:53:56;99451.50;;;7.09;49.70
13312;BME280;34033;48.672;9.376;2023-01-29T12:56:31;99439.28;;;7.02;49.65
13312;BME280;34033;48.672;9.376;2023-01-29T12:58:59;99433.72;;;6.69;49.09
13312;BME280;34033;48.672;9.376;2023-01-29T13:01:39;99428.31;;;6.52;49.52
13312;BME280;34033;48.672;9.376;2023-01-29T13:04:14;99433.13;;;6.43;51.16
13312;BME280;34033;48.672;9.376;2023-01-29T13:06:50;99428.59;;;6.38;50.19
13312;BME280;34033;48.672;9.376;2023-01-29T13:09:25;99427.59;;;6.43;50.58
13312;BME280;34033;48.672;9.376;2023-01-29T13:11:59;99426.34;;;6.52;50.36
13312;BME280;34033;48.672;9.376;2023-01-29T13:14:39;99430.84;;;6.45;50.99
13312;BME280;34033;48.672;9.376;2023-01-29T13:17:16;99436.91;;;6.59;50.54
13312;BME280;34033;48.672;9.376;2023-01-29T13:19:46;99440.81;;;6.79;50.13
13312;BME280;34033;48.672;9.376;2023-01-29T13:22:23;99427.72;;;6.67;49.88
13312;BME280;34033;48.672;9.376;2023-01-29T13:24:50;99423.31;;;6.78;51.45
13312;BME280;34033;48.672;9.376;2023-01-29T13:27:22;99421.16;;;6.84;50.08
13312;BME280;34033;48.672;9.376;2023-01-29T13:29:48;99414.09;;;6.86;49.76
13312;BME280;34033;48.672;9.376;2023-01-29T13:32:23;99415.25;;;6.85;48.69
13312;BME280;34033;48.672;9.376;2023-01-29T13:34:50;99420.66;;;6.69;50.17
13312;BME280;34033;48.672;9.376;2023-01-29T13:39:49;99421.97;;;6.84;50.35
13312;BME280;34033;48.672;9.376;2023-01-29T13:42:18;99418.78;;;6.74;49.80
13312;BME280;34033;48.672;9.376;2023-01-29T13:44:47;99420.38;;;6.83;49.44
13312;BME280;34033;48.672;9.376;2023-01-29T13:49:57;99421.72;;;7.10;49.57
13312;BME280;34033;48.672;9.376;2023-01-29T13:55:06;99413.59;;;7.17;49.26
13312;BME280;34033;48.672;9.376;2023-01-29T13:57:44;99417.75;;;6.99;49.10
13312;BME280;34033;48.672;9.376;2023-01-29T14:02:45;99418.06;;;8.15;67.14
13312;BME280;34033;48.672;9.376;2023-01-29T14:10:22;99420.16;;;7.82;59.34
13312;BME280;34033;48.672;9.376;2023-01-29T14:13:24;99423.38;;;8.20;53.09
13312;BME280;34033;48.672;9.376;2023-01-29T14:15:40;99422.34;;;7.88;48.13
13312;BME280;34033;48.672;9.376;2023-01-29T14:25:54;99439.47;;;7.30;50.89
13312;BME280;34033;48.672;9.376;2023-01-29T14:28:23;99440.41;;;7.22;49.28
13312;BME280;34033;48.672;9.376;2023-01-29T14:30:50;99434.00;;;7.09;49.09
13312;BME280;34033;48.672;9.376;2023-01-29T14:33:31;99426.31;;;6.94;49.03
13312;BME280;34033;48.672;9.376;2023-01-29T14:35:58;99422.88;;;6.76;49.26
13312;BME280;34033;48.672;9.376;2023-01-29T14:38:28;99422.69;;;6.60;49.94
13312;BME280;34033;48.672;9.376;2023-01-29T14:41:28;99419.56;;;6.62;52.54
13312;BME280;34033;48.672;9.376;2023-01-29T14:46:57;99417.28;;;6.43;49.97
13312;BME280;34033;48.672;9.376;2023-01-29T14:52:14;99421.13;;;6.30;50.35
13312;BME280;34033;48.672;9.376;2023-01-29T14:54:41;99426.41;;;6.23;51.67
13312;BME280;34033;48.672;9.376;2023-01-29T14:57:11;99425.59;;;6.02;50.99
13312;BME280;34033;48.672;9.376;2023-01-29T14:59:56;99424.38;;;5.82;51.52
13312;BME280;34033;48.672;9.376;2023-01-29T15:02:26;99419.66;;;5.82;51.68
13312;BME280;34033;48.672;9.376;2023-01-29T15:04:59;99414.75;;;5.79;52.62
13312;BME280;34033;48.672;9.376;2023-01-29T15:07:43;99410.84;;;5.80;52.84
13312;BME280;34033;48.672;9.376;2023-01-29T15:10:26;99406.84;;;5.99;53.68
13312;BME280;34033;48.672;9.376;2023-01-29T15:12:59;99411.56;;;5.98;52.22
13312;BME280;34033;48.672;9.376;2023-01-29T15:21:01;99419.16;;;6.10;51.62
13312;BME280;34033;48.672;9.376;2023-01-29T15:23:28;99416.94;;;6.24;52.38
13312;BME280;34033;48.672;9.376;2023-01-29T15:25:56;99407.84;;;6.36;51.87
13312;BME280;34033;48.672;9.376;2023-01-29T15:28:23;99405.97;;;6.48;51.57
13312;BME280;34033;48.672;9.376;2023-01-29T15:30:53;99406.44;;;6.50;51.27
13312;BME280;34033;48.672;9.376;2023-01-29T15:33:19;99401.13;;;6.57;51.73
13312;BME280;34033;48.672;9.376;2023-01-29T15:35:45;99403.41;;;6.43;51.34
13312;BME280;34033;48.672;9.376;2023-01-29T15:38:17;99408.75;;;6.48;51.92
13312;BME280;34033;48.672;9.376;2023-01-29T15:43:27;99407.34;;;6.21;51.31
13312;BME280;34033;48.672;9.376;2023-01-29T15:45:56;99411.38;;;6.24;53.06
13312;BME280;34033;48.672;9.376;2023-01-29T15:48:30;99413.00;;;6.25;52.37
13312;BME280;34033;48.672;9.376;2023-01-29T15:50:58;99414.44;;;6.10;52.25
13312;BME280;34033;48.672;9.376;2023-01-29T15:53:29;99419.16;;;6.10;52.54
13312;BME280;34033;48.672;9.376;2023-01-29T15:55:59;99416.63;;;5.96;52.68